Mitchellville, Iowa
Current Conditions -  °F | °C
As of 6:35 PM on Thursday 18 Dec 2014 (Local Time) from KIKV Reporting Station
Overcast Overcast  
Wind Chill: 28°   Ceiling: 3600
Heat Index: 28°   Visibility: 10mi
Dew Point: 21°   Wind: 3mph
Humidity: 74%   Direction: 100°E
Pressure: 30.26"   Gusts: NA
Location:  41.67°N, 93.36°W
Report Text: KIKV 190035Z AUTO 10003KT 10SM BKN036 OVC044 M02/M06 A3026 RMK AO2
Loading
Personal Weather Stations






























Interactive Weather Map New forecast layout! Learn more

10-Day Weather Forecast

Advertisements
Track Severe Weather on mobile